Aérodrome :
LOGIN :

S'inscrire | Disclaimer

   EN    FR    IT 

 










Légende :    VFR   VFR Marginal   IFR   IFR Intensif   IFR Très Intensif
Visi : 
Plafond : 
>= 8 km
>= 3000ft
5 à 8 km
1000 à 3000 ft
1500m à 5 km
500 à 1000 ft
800 à 1500m
200 à 500 ft
< 800m
< 200 ft
Symboles :   Orages  Brouillard  Fortes neiges  Fortes précipitations  Vent > 20 kt
SIGMETs :   Divers  Orages  Givrage  Turbulence  Onde Orograph.  Cendres Volcan.






- Altitude de l'aérodrome : 52 ft
- Code IATA : RNN


EKRN - Bornholm Ronne

DERNIER METAR :
  • 201420Z AUTO 12010KT 9999 BKN120/// 08/07 Q1018

METARs EXPIRÉS :
  • 201350Z AUTO 12010KT 9999 FEW009/// BKN120/// 08/07 Q1018
  • 201320Z AUTO 12012KT 9999 BKN010/// BKN120/// 08/07 Q1018
  • 201250Z AUTO 12013KT 9999 BKN009/// BKN073/// BKN130/// 08/07 Q1018
  • 201220Z AUTO 11009KT 9999 FEW009/// BKN074/// BKN140/// 08/07 Q1018
  • 201150Z AUTO 10010KT 9999 OVC074/// 08/07 Q1018

TAF AMD TAF EKRN
Valide du 20 à 12h jusqu'au 20 à 21h UTC


201255Z 2012/2021 06005KT 9999 BKN015
BECMG 2012/2013 12012KT
TEMPO 2012/2021 BKN008



MET'MAP, la Météo Aéronautique d'un coup d'oeil ! - Copyright ORBIFLY Décembre 2007 - Disclaimer

ORBIFLY MET'MAP TEAM :

Programmation & Développement : Alexandra Zaïnal
Conception & Développement : Baudouin d'Aumeries
Co-Programmation & Développement : Marc-Olivier Méhu
Soutien technique & logistique : Manuel Goepfert

Contact : metmap@orbifly.com




SOURCES & CREDITS :

   NOAA